Terminal Aerodrome Forecast
Issued by NWS

Home | Current Version | Previous Version | Text Only | Print | Product List | Glossary On
Versions: 1 2 3 4 5 6 7 8 9 10 11 12 13 14 15 16 17
000
FTUS43 KGRR 271126
TAFBTL
TAF
KBTL 271126Z 2712/2812 18003KT P6SM SCT050 SCT250
     FM271500 25009KT P6SM VCTS SCT050CB SCT250
     FM280900 04006KT P6SM VCSH BKN050 OVC100=

USA.gov is the U.S. government's official web portal to all federal, state and local government web resources and services.